sensor_id;sensor_type;location;lat;lon;timestamp;pressure;altitude;pressure_sealevel;temperature;humidity
53719;BME280;39616;48.872;9.390;2023-12-20T00:00:54;98359.44;;;5.58;100.00
53719;BME280;39616;48.872;9.390;2023-12-20T00:03:25;98352.41;;;5.52;100.00
53719;BME280;39616;48.872;9.390;2023-12-20T00:05:55;98355.88;;;5.47;100.00
53719;BME280;39616;48.872;9.390;2023-12-20T00:08:26;98349.69;;;5.42;100.00
53719;BME280;39616;48.872;9.390;2023-12-20T00:10:56;98348.59;;;5.43;100.00
53719;BME280;39616;48.872;9.390;2023-12-20T00:13:26;98354.22;;;5.41;100.00
53719;BME280;39616;48.872;9.390;2023-12-20T00:15:56;98354.78;;;5.43;100.00
53719;BME280;39616;48.872;9.390;2023-12-20T00:18:27;98347.75;;;5.37;100.00
53719;BME280;39616;48.872;9.390;2023-12-20T00:20:57;98337.84;;;5.38;100.00
53719;BME280;39616;48.872;9.390;2023-12-20T00:23:27;98347.25;;;5.40;100.00
53719;BME280;39616;48.872;9.390;2023-12-20T00:25:58;98333.75;;;5.30;100.00
53719;BME280;39616;48.872;9.390;2023-12-20T00:28:28;98340.19;;;5.29;100.00
53719;BME280;39616;48.872;9.390;2023-12-20T00:30:58;98332.41;;;5.27;100.00
53719;BME280;39616;48.872;9.390;2023-12-20T00:33:28;98334.00;;;5.23;100.00
53719;BME280;39616;48.872;9.390;2023-12-20T00:35:59;98325.66;;;5.25;100.00
53719;BME280;39616;48.872;9.390;2023-12-20T00:38:29;98333.19;;;5.23;100.00
53719;BME280;39616;48.872;9.390;2023-12-20T00:40:59;98327.25;;;5.21;100.00
53719;BME280;39616;48.872;9.390;2023-12-20T00:43:30;98324.00;;;5.19;100.00
53719;BME280;39616;48.872;9.390;2023-12-20T00:46:00;98325.59;;;5.15;100.00
53719;BME280;39616;48.872;9.390;2023-12-20T00:48:30;98319.13;;;5.11;100.00
53719;BME280;39616;48.872;9.390;2023-12-20T00:51:01;98320.22;;;5.09;100.00
53719;BME280;39616;48.872;9.390;2023-12-20T00:53:31;98309.47;;;5.09;100.00
53719;BME280;39616;48.872;9.390;2023-12-20T00:56:02;98318.59;;;5.08;100.00
53719;BME280;39616;48.872;9.390;2023-12-20T00:58:32;98314.53;;;5.01;100.00
53719;BME280;39616;48.872;9.390;2023-12-20T01:01:02;98322.31;;;5.02;100.00
53719;BME280;39616;48.872;9.390;2023-12-20T01:03:33;98327.13;;;5.00;100.00
53719;BME280;39616;48.872;9.390;2023-12-20T01:06:03;98331.47;;;5.01;100.00
53719;BME280;39616;48.872;9.390;2023-12-20T01:08:35;98329.03;;;5.00;100.00
53719;BME280;39616;48.872;9.390;2023-12-20T01:11:05;98329.28;;;4.98;100.00
53719;BME280;39616;48.872;9.390;2023-12-20T01:13:36;98328.47;;;4.98;100.00
53719;BME280;39616;48.872;9.390;2023-12-20T01:16:06;98323.88;;;4.93;100.00
53719;BME280;39616;48.872;9.390;2023-12-20T01:18:36;98323.34;;;4.91;100.00
53719;BME280;39616;48.872;9.390;2023-12-20T01:21:07;98327.63;;;4.92;100.00
53719;BME280;39616;48.872;9.390;2023-12-20T01:23:37;98325.44;;;4.89;100.00
53719;BME280;39616;48.872;9.390;2023-12-20T01:26:08;98336.47;;;4.88;100.00
53719;BME280;39616;48.872;9.390;2023-12-20T01:28:39;98334.81;;;4.81;100.00
53719;BME280;39616;48.872;9.390;2023-12-20T01:31:09;98332.94;;;4.82;100.00
53719;BME280;39616;48.872;9.390;2023-12-20T01:33:39;98335.09;;;4.80;100.00
53719;BME280;39616;48.872;9.390;2023-12-20T01:36:10;98342.56;;;4.78;100.00
53719;BME280;39616;48.872;9.390;2023-12-20T01:38:41;98339.34;;;4.76;100.00
53719;BME280;39616;48.872;9.390;2023-12-20T01:41:11;98335.31;;;4.73;100.00
53719;BME280;39616;48.872;9.390;2023-12-20T01:43:41;98346.03;;;4.73;100.00
53719;BME280;39616;48.872;9.390;2023-12-20T01:46:12;98346.22;;;4.62;100.00
53719;BME280;39616;48.872;9.390;2023-12-20T01:48:42;98351.03;;;4.59;100.00
53719;BME280;39616;48.872;9.390;2023-12-20T01:51:13;98342.38;;;4.52;100.00
53719;BME280;39616;48.872;9.390;2023-12-20T01:53:44;98341.59;;;4.52;100.00
53719;BME280;39616;48.872;9.390;2023-12-20T01:56:15;98346.31;;;4.40;100.00
53719;BME280;39616;48.872;9.390;2023-12-20T01:58:46;98342.03;;;4.39;100.00
53719;BME280;39616;48.872;9.390;2023-12-20T02:01:17;98346.28;;;4.34;100.00
53719;BME280;39616;48.872;9.390;2023-12-20T02:03:48;98350.00;;;4.33;100.00
53719;BME280;39616;48.872;9.390;2023-12-20T02:06:21;98346.00;;;4.31;100.00
53719;BME280;39616;48.872;9.390;2023-12-20T02:08:51;98344.31;;;4.25;100.00
53719;BME280;39616;48.872;9.390;2023-12-20T02:11:22;98340.84;;;4.29;100.00
53719;BME280;39616;48.872;9.390;2023-12-20T02:13:53;98337.09;;;4.30;100.00
53719;BME280;39616;48.872;9.390;2023-12-20T02:16:23;98332.50;;;4.26;100.00
53719;BME280;39616;48.872;9.390;2023-12-20T02:18:53;98330.63;;;4.26;100.00
53719;BME280;39616;48.872;9.390;2023-12-20T02:21:33;98333.59;;;4.30;100.00
53719;BME280;39616;48.872;9.390;2023-12-20T02:24:05;98340.31;;;4.27;100.00
53719;BME280;39616;48.872;9.390;2023-12-20T02:26:35;98343.00;;;4.27;100.00
53719;BME280;39616;48.872;9.390;2023-12-20T02:29:06;98335.44;;;4.24;100.00
53719;BME280;39616;48.872;9.390;2023-12-20T02:31:36;98337.34;;;4.24;100.00
53719;BME280;39616;48.872;9.390;2023-12-20T02:34:06;98334.66;;;4.24;100.00
53719;BME280;39616;48.872;9.390;2023-12-20T02:36:36;98340.81;;;4.24;100.00
53719;BME280;39616;48.872;9.390;2023-12-20T02:39:07;98337.88;;;4.26;100.00
53719;BME280;39616;48.872;9.390;2023-12-20T02:41:38;98344.53;;;4.23;100.00
53719;BME280;39616;48.872;9.390;2023-12-20T02:44:08;98344.53;;;4.23;100.00
53719;BME280;39616;48.872;9.390;2023-12-20T02:46:38;98338.38;;;4.23;100.00
53719;BME280;39616;48.872;9.390;2023-12-20T02:49:09;98345.38;;;4.24;100.00
53719;BME280;39616;48.872;9.390;2023-12-20T02:51:39;98336.25;;;4.25;100.00
53719;BME280;39616;48.872;9.390;2023-12-20T02:54:09;98343.81;;;4.28;100.00
53719;BME280;39616;48.872;9.390;2023-12-20T02:56:40;98340.31;;;4.27;100.00
53719;BME280;39616;48.872;9.390;2023-12-20T02:59:10;98341.13;;;4.28;100.00
53719;BME280;39616;48.872;9.390;2023-12-20T03:01:44;98343.00;;;4.27;100.00
53719;BME280;39616;48.872;9.390;2023-12-20T03:04:15;98337.38;;;4.29;100.00
53719;BME280;39616;48.872;9.390;2023-12-20T03:06:45;98340.31;;;4.27;100.00
53719;BME280;39616;48.872;9.390;2023-12-20T03:09:16;98347.03;;;4.30;100.00
53719;BME280;39616;48.872;9.390;2023-12-20T03:11:46;98340.34;;;4.32;100.00
53719;BME280;39616;48.872;9.390;2023-12-20T03:14:16;98343.59;;;4.34;100.00
53719;BME280;39616;48.872;9.390;2023-12-20T03:16:49;98347.44;;;4.44;100.00
53719;BME280;39616;48.872;9.390;2023-12-20T03:19:19;98349.03;;;4.45;100.00
53719;BME280;39616;48.872;9.390;2023-12-20T03:21:50;98359.53;;;4.46;100.00
53719;BME280;39616;48.872;9.390;2023-12-20T03:24:20;98363.34;;;4.50;100.00
53719;BME280;39616;48.872;9.390;2023-12-20T03:26:50;98353.66;;;4.49;100.00
53719;BME280;39616;48.872;9.390;2023-12-20T03:29:21;98365.22;;;4.50;100.00
53719;BME280;39616;48.872;9.390;2023-12-20T03:31:51;98361.97;;;4.48;100.00
53719;BME280;39616;48.872;9.390;2023-12-20T03:34:21;98365.22;;;4.50;100.00
53719;BME280;39616;48.872;9.390;2023-12-20T03:36:52;98370.59;;;4.50;100.00
53719;BME280;39616;48.872;9.390;2023-12-20T03:39:22;98366.00;;;4.50;100.00
53719;BME280;39616;48.872;9.390;2023-12-20T03:41:52;98364.41;;;4.49;100.00
53719;BME280;39616;48.872;9.390;2023-12-20T03:44:22;98362.47;;;4.45;100.00
53719;BME280;39616;48.872;9.390;2023-12-20T03:46:53;98362.47;;;4.45;100.00
53719;BME280;39616;48.872;9.390;2023-12-20T03:49:23;98354.16;;;4.46;100.00
53719;BME280;39616;48.872;9.390;2023-12-20T03:51:53;98370.78;;;4.43;100.00
53719;BME280;39616;48.872;9.390;2023-12-20T03:54:24;98372.41;;;4.44;100.00
53719;BME280;39616;48.872;9.390;2023-12-20T03:56:54;98372.91;;;4.41;100.00
53719;BME280;39616;48.872;9.390;2023-12-20T03:59:25;98360.28;;;4.42;100.00
53719;BME280;39616;48.872;9.390;2023-12-20T04:01:55;98362.16;;;4.41;100.00
53719;BME280;39616;48.872;9.390;2023-12-20T04:04:25;98367.50;;;4.36;100.00
53719;BME280;39616;48.872;9.390;2023-12-20T04:06:55;98359.44;;;4.36;100.00
53719;BME280;39616;48.872;9.390;2023-12-20T04:09:26;98366.44;;;4.37;100.00
53719;BME280;39616;48.872;9.390;2023-12-20T04:11:56;98367.22;;;4.38;100.00
53719;BME280;39616;48.872;9.390;2023-12-20T04:14:26;98372.31;;;4.34;100.00
53719;BME280;39616;48.872;9.390;2023-12-20T04:16:57;98372.84;;;4.31;100.00
53719;BME280;39616;48.872;9.390;2023-12-20T04:19:27;98374.44;;;4.32;100.00
53719;BME280;39616;48.872;9.390;2023-12-20T04:21:57;98371.50;;;4.33;100.00
53719;BME280;39616;48.872;9.390;2023-12-20T04:24:28;98362.91;;;4.31;100.00
53719;BME280;39616;48.872;9.390;2023-12-20T04:26:58;98374.44;;;4.32;100.00
53719;BME280;39616;48.872;9.390;2023-12-20T04:29:28;98380.31;;;4.29;100.00
53719;BME280;39616;48.872;9.390;2023-12-20T04:31:59;98383.56;;;4.31;100.00
53719;BME280;39616;48.872;9.390;2023-12-20T04:34:29;98382.44;;;4.27;100.00
53719;BME280;39616;48.872;9.390;2023-12-20T04:36:59;98395.63;;;4.28;100.00
53719;BME280;39616;48.872;9.390;2023-12-20T04:39:31;98400.41;;;4.26;100.00
53719;BME280;39616;48.872;9.390;2023-12-20T04:42:02;98383.81;;;4.29;100.00
53719;BME280;39616;48.872;9.390;2023-12-20T04:44:32;98401.50;;;4.25;100.00
53719;BME280;39616;48.872;9.390;2023-12-20T04:47:02;98416.53;;;4.26;100.00
53719;BME280;39616;48.872;9.390;2023-12-20T04:49:33;98414.59;;;4.22;100.00
53719;BME280;39616;48.872;9.390;2023-12-20T04:52:03;98411.06;;;4.16;100.00
53719;BME280;39616;48.872;9.390;2023-12-20T04:54:34;98412.19;;;4.20;100.00
53719;BME280;39616;48.872;9.390;2023-12-20T04:57:04;98404.94;;;4.21;100.00
53719;BME280;39616;48.872;9.390;2023-12-20T04:59:34;98410.81;;;4.18;100.00
53719;BME280;39616;48.872;9.390;2023-12-20T05:02:05;98398.75;;;4.20;100.00
53719;BME280;39616;48.872;9.390;2023-12-20T05:04:35;98411.13;;;4.21;100.00
53719;BME280;39616;48.872;9.390;2023-12-20T05:07:05;98408.94;;;4.18;100.00
53719;BME280;39616;48.872;9.390;2023-12-20T05:09:35;98412.50;;;4.24;100.00
53719;BME280;39616;48.872;9.390;2023-12-20T05:12:06;98421.09;;;4.26;100.00
53719;BME280;39616;48.872;9.390;2023-12-20T05:14:36;98414.34;;;4.23;100.00
53719;BME280;39616;48.872;9.390;2023-12-20T05:17:07;98416.22;;;4.23;100.00
53719;BME280;39616;48.872;9.390;2023-12-20T05:19:37;98417.34;;;4.27;100.00
53719;BME280;39616;48.872;9.390;2023-12-20T05:22:08;98421.28;;;4.19;100.00
53719;BME280;39616;48.872;9.390;2023-12-20T05:24:38;98423.78;;;4.26;100.00
53719;BME280;39616;48.872;9.390;2023-12-20T05:27:08;98425.16;;;4.28;100.00
53719;BME280;39616;48.872;9.390;2023-12-20T05:29:38;98425.00;;;4.40;100.00
53719;BME280;39616;48.872;9.390;2023-12-20T05:32:09;98410.00;;;4.44;100.00
53719;BME280;39616;48.872;9.390;2023-12-20T05:34:40;98417.06;;;4.55;100.00
53719;BME280;39616;48.872;9.390;2023-12-20T05:37:10;98425.09;;;4.50;100.00
53719;BME280;39616;48.872;9.390;2023-12-20T05:39:41;98425.91;;;4.51;100.00
53719;BME280;39616;48.872;9.390;2023-12-20T05:42:11;98438.75;;;4.49;100.00
53719;BME280;39616;48.872;9.390;2023-12-20T05:44:42;98432.66;;;4.53;100.00
53719;BME280;39616;48.872;9.390;2023-12-20T05:47:12;98443.44;;;4.58;100.00
53719;BME280;39616;48.872;9.390;2023-12-20T05:49:43;98443.44;;;4.58;100.00
53719;BME280;39616;48.872;9.390;2023-12-20T05:52:14;98453.59;;;4.56;100.00
53719;BME280;39616;48.872;9.390;2023-12-20T05:54:44;98456.59;;;4.60;100.00
53719;BME280;39616;48.872;9.390;2023-12-20T05:57:15;98464.66;;;4.60;100.00
53719;BME280;39616;48.872;9.390;2023-12-20T05:59:45;98461.16;;;4.59;100.00
53719;BME280;39616;48.872;9.390;2023-12-20T06:02:15;98464.41;;;4.62;100.00
53719;BME280;39616;48.872;9.390;2023-12-20T06:04:45;98473.53;;;4.60;100.00
53719;BME280;39616;48.872;9.390;2023-12-20T06:07:16;98484.22;;;4.55;100.00
53719;BME280;39616;48.872;9.390;2023-12-20T06:09:46;98481.84;;;4.59;100.00
53719;BME280;39616;48.872;9.390;2023-12-20T06:12:17;98488.28;;;4.58;100.00
53719;BME280;39616;48.872;9.390;2023-12-20T06:14:47;98492.09;;;4.62;100.00
53719;BME280;39616;48.872;9.390;2023-12-20T06:17:17;98484.03;;;4.62;100.00
53719;BME280;39616;48.872;9.390;2023-12-20T06:19:47;98485.56;;;4.53;100.00
53719;BME280;39616;48.872;9.390;2023-12-20T06:22:18;98481.72;;;4.49;100.00
53719;BME280;39616;48.872;9.390;2023-12-20T06:24:48;98482.03;;;4.52;100.00
53719;BME280;39616;48.872;9.390;2023-12-20T06:27:18;98481.53;;;4.55;100.00
53719;BME280;39616;48.872;9.390;2023-12-20T06:29:49;98482.59;;;4.54;100.00
53719;BME280;39616;48.872;9.390;2023-12-20T06:32:19;98488.81;;;4.60;100.00
53719;BME280;39616;48.872;9.390;2023-12-20T06:34:50;98498.97;;;4.53;100.00
53719;BME280;39616;48.872;9.390;2023-12-20T06:37:20;98498.16;;;4.52;100.00
53719;BME280;39616;48.872;9.390;2023-12-20T06:39:50;98504.03;;;4.49;100.00
53719;BME280;39616;48.872;9.390;2023-12-20T06:42:21;98505.66;;;4.50;100.00
53719;BME280;39616;48.872;9.390;2023-12-20T06:44:51;98497.03;;;4.48;100.00
53719;BME280;39616;48.872;9.390;2023-12-20T06:47:21;98498.91;;;4.48;100.00
53719;BME280;39616;48.872;9.390;2023-12-20T06:49:52;98513.22;;;4.53;100.00
53719;BME280;39616;48.872;9.390;2023-12-20T06:52:22;98510.47;;;4.48;100.00
53719;BME280;39616;48.872;9.390;2023-12-20T06:54:52;98511.53;;;4.47;100.00
53719;BME280;39616;48.872;9.390;2023-12-20T06:57:22;98508.03;;;4.47;100.00
53719;BME280;39616;48.872;9.390;2023-12-20T06:59:53;98523.06;;;4.48;100.00
53719;BME280;39616;48.872;9.390;2023-12-20T07:02:23;98525.22;;;4.46;100.00
53719;BME280;39616;48.872;9.390;2023-12-20T07:04:54;98520.66;;;4.46;100.00
53719;BME280;39616;48.872;9.390;2023-12-20T07:07:24;98523.56;;;4.45;100.00
53719;BME280;39616;48.872;9.390;2023-12-20T07:09:54;98528.94;;;4.45;100.00
53719;BME280;39616;48.872;9.390;2023-12-20T07:12:25;98540.25;;;4.47;100.00
53719;BME280;39616;48.872;9.390;2023-12-20T07:14:55;98534.88;;;4.47;100.00
53719;BME280;39616;48.872;9.390;2023-12-20T07:17:26;98536.28;;;4.49;100.00
53719;BME280;39616;48.872;9.390;2023-12-20T07:19:56;98536.78;;;4.46;100.00
53719;BME280;39616;48.872;9.390;2023-12-20T07:22:27;98539.50;;;4.51;100.00
53719;BME280;39616;48.872;9.390;2023-12-20T07:24:58;98538.69;;;4.51;100.00
53719;BME280;39616;48.872;9.390;2023-12-20T07:27:28;98550.25;;;4.51;100.00
53719;BME280;39616;48.872;9.390;2023-12-20T07:29:58;98566.13;;;4.53;100.00
53719;BME280;39616;48.872;9.390;2023-12-20T07:32:29;98557.75;;;4.49;100.00
53719;BME280;39616;48.872;9.390;2023-12-20T07:34:59;98569.03;;;4.51;100.00
53719;BME280;39616;48.872;9.390;2023-12-20T07:37:29;98573.13;;;4.54;100.00
53719;BME280;39616;48.872;9.390;2023-12-20T07:39:59;98571.22;;;4.54;100.00
53719;BME280;39616;48.872;9.390;2023-12-20T07:42:30;98571.72;;;4.51;100.00
53719;BME280;39616;48.872;9.390;2023-12-20T07:45:00;98573.88;;;4.49;100.00
53719;BME280;39616;48.872;9.390;2023-12-20T07:47:30;98569.53;;;4.48;100.00
53719;BME280;39616;48.872;9.390;2023-12-20T07:50:01;98582.66;;;4.45;100.00
53719;BME280;39616;48.872;9.390;2023-12-20T07:52:31;98581.34;;;4.47;100.00
53719;BME280;39616;48.872;9.390;2023-12-20T07:55:01;98585.97;;;4.52;100.00
53719;BME280;39616;48.872;9.390;2023-12-20T07:57:32;98579.97;;;4.45;100.00
53719;BME280;39616;48.872;9.390;2023-12-20T08:00:02;98588.66;;;4.52;100.00
53719;BME280;39616;48.872;9.390;2023-12-20T08:02:34;98589.97;;;4.49;100.00
53719;BME280;39616;48.872;9.390;2023-12-20T08:05:04;98593.22;;;4.51;100.00
53719;BME280;39616;48.872;9.390;2023-12-20T08:07:34;98596.47;;;4.53;100.00
53719;BME280;39616;48.872;9.390;2023-12-20T08:10:05;98592.41;;;4.51;100.00
53719;BME280;39616;48.872;9.390;2023-12-20T08:12:36;98599.22;;;4.58;100.00
53719;BME280;39616;48.872;9.390;2023-12-20T08:15:06;98589.53;;;4.57;100.00
53719;BME280;39616;48.872;9.390;2023-12-20T08:17:36;98602.38;;;4.55;100.00
53719;BME280;39616;48.872;9.390;2023-12-20T08:20:07;98601.31;;;4.56;100.00
53719;BME280;39616;48.872;9.390;2023-12-20T08:22:37;98605.97;;;4.61;100.00
53719;BME280;39616;48.872;9.390;2023-12-20T08:25:08;98610.75;;;4.59;100.00
53719;BME280;39616;48.872;9.390;2023-12-20T08:27:41;98617.66;;;4.50;100.00
53719;BME280;39616;48.872;9.390;2023-12-20T08:30:12;98620.44;;;4.38;100.00
53719;BME280;39616;48.872;9.390;2023-12-20T08:32:42;98619.13;;;4.41;100.00
53719;BME280;39616;48.872;9.390;2023-12-20T08:35:12;98617.50;;;4.40;100.00
53719;BME280;39616;48.872;9.390;2023-12-20T08:37:43;98620.63;;;4.31;100.00
53719;BME280;39616;48.872;9.390;2023-12-20T08:40:13;98623.53;;;4.30;100.00
53719;BME280;39616;48.872;9.390;2023-12-20T08:42:43;98625.78;;;4.38;100.00
53719;BME280;39616;48.872;9.390;2023-12-20T08:45:14;98629.81;;;4.79;100.00
53719;BME280;39616;48.872;9.390;2023-12-20T08:47:44;98636.22;;;5.00;100.00
53719;BME280;39616;48.872;9.390;2023-12-20T08:50:15;98642.88;;;5.20;100.00
53719;BME280;39616;48.872;9.390;2023-12-20T08:52:47;98639.47;;;5.02;100.00
53719;BME280;39616;48.872;9.390;2023-12-20T08:55:19;98635.72;;;5.03;100.00
53719;BME280;39616;48.872;9.390;2023-12-20T08:57:49;98627.66;;;5.30;100.00
53719;BME280;39616;48.872;9.390;2023-12-20T09:00:21;98611.13;;;5.81;100.00
53719;BME280;39616;48.872;9.390;2023-12-20T09:02:54;98629.84;;;5.66;100.00
53719;BME280;39616;48.872;9.390;2023-12-20T09:05:25;98620.69;;;5.94;100.00
53719;BME280;39616;48.872;9.390;2023-12-20T09:07:55;98621.78;;;5.66;100.00
53719;BME280;39616;48.872;9.390;2023-12-20T09:10:26;98610.84;;;6.15;100.00
53719;BME280;39616;48.872;9.390;2023-12-20T09:12:56;98613.16;;;6.43;100.00
53719;BME280;39616;48.872;9.390;2023-12-20T09:15:27;98612.41;;;6.58;100.00
53719;BME280;39616;48.872;9.390;2023-12-20T09:17:57;98621.28;;;6.59;100.00
53719;BME280;39616;48.872;9.390;2023-12-20T09:20:28;98616.75;;;6.69;100.00
53719;BME280;39616;48.872;9.390;2023-12-20T09:22:58;98619.22;;;6.71;100.00
53719;BME280;39616;48.872;9.390;2023-12-20T09:25:29;98622.38;;;6.63;100.00
53719;BME280;39616;48.872;9.390;2023-12-20T09:28:00;98620.88;;;6.82;100.00
53719;BME280;39616;48.872;9.390;2023-12-20T09:30:30;98624.75;;;7.32;100.00
53719;BME280;39616;48.872;9.390;2023-12-20T09:33:00;98628.81;;;7.86;100.00
53719;BME280;39616;48.872;9.390;2023-12-20T09:35:31;98628.53;;;8.18;93.61
53719;BME280;39616;48.872;9.390;2023-12-20T09:38:01;98621.81;;;7.44;95.08
53719;BME280;39616;48.872;9.390;2023-12-20T09:40:32;98623.66;;;8.15;91.78
53719;BME280;39616;48.872;9.390;2023-12-20T09:43:04;98623.69;;;7.89;95.30
53719;BME280;39616;48.872;9.390;2023-12-20T09:45:39;98626.31;;;8.45;92.76
53719;BME280;39616;48.872;9.390;2023-12-20T09:48:11;98627.94;;;8.52;92.28
53719;BME280;39616;48.872;9.390;2023-12-20T09:50:42;98629.38;;;7.62;89.80
53719;BME280;39616;48.872;9.390;2023-12-20T09:53:15;98644.75;;;7.92;92.22
53719;BME280;39616;48.872;9.390;2023-12-20T09:55:45;98643.94;;;7.97;90.43
53719;BME280;39616;48.872;9.390;2023-12-20T09:58:16;98642.31;;;7.50;89.75
53719;BME280;39616;48.872;9.390;2023-12-20T10:00:46;98634.91;;;6.94;90.61
53719;BME280;39616;48.872;9.390;2023-12-20T10:03:19;98646.91;;;7.49;90.92
53719;BME280;39616;48.872;9.390;2023-12-20T10:05:56;98645.03;;;7.86;92.61
53719;BME280;39616;48.872;9.390;2023-12-20T10:08:28;98641.25;;;7.87;90.65
53719;BME280;39616;48.872;9.390;2023-12-20T10:11:00;98635.31;;;7.80;90.79
53719;BME280;39616;48.872;9.390;2023-12-20T10:13:32;98636.63;;;8.18;87.81
53719;BME280;39616;48.872;9.390;2023-12-20T10:16:03;98631.81;;;7.74;85.51
53719;BME280;39616;48.872;9.390;2023-12-20T10:18:33;98639.06;;;7.53;87.10
53719;BME280;39616;48.872;9.390;2023-12-20T10:21:04;98634.72;;;7.26;84.06
53719;BME280;39616;48.872;9.390;2023-12-20T10:23:34;98632.53;;;7.13;85.29
53719;BME280;39616;48.872;9.390;2023-12-20T10:26:05;98629.81;;;7.03;85.70
53719;BME280;39616;48.872;9.390;2023-12-20T10:28:35;98626.13;;;7.60;87.08
53719;BME280;39616;48.872;9.390;2023-12-20T10:31:06;98617.97;;;7.09;81.74
53719;BME280;39616;48.872;9.390;2023-12-20T10:33:36;98604.00;;;7.63;85.26
53719;BME280;39616;48.872;9.390;2023-12-20T10:36:10;98612.88;;;7.23;86.07
53719;BME280;39616;48.872;9.390;2023-12-20T10:38:44;98612.25;;;6.95;83.56
53719;BME280;39616;48.872;9.390;2023-12-20T10:41:16;98610.31;;;6.75;87.26
53719;BME280;39616;48.872;9.390;2023-12-20T10:43:47;98617.50;;;6.49;86.34
53719;BME280;39616;48.872;9.390;2023-12-20T10:46:19;98619.50;;;6.22;87.09
53719;BME280;39616;48.872;9.390;2023-12-20T10:48:51;98617.88;;;5.84;87.83
53719;BME280;39616;48.872;9.390;2023-12-20T10:51:23;98614.38;;;5.83;87.65
53719;BME280;39616;48.872;9.390;2023-12-20T10:53:56;98618.81;;;5.99;87.13
53719;BME280;39616;48.872;9.390;2023-12-20T10:56:32;98613.78;;;6.08;90.03
53719;BME280;39616;48.872;9.390;2023-12-20T10:59:02;98607.22;;;5.94;87.43
53719;BME280;39616;48.872;9.390;2023-12-20T11:01:36;98605.88;;;5.96;89.30
53719;BME280;39616;48.872;9.390;2023-12-20T11:04:10;98595.94;;;5.65;87.53
53719;BME280;39616;48.872;9.390;2023-12-20T11:06:54;98612.50;;;5.51;89.32
53719;BME280;39616;48.872;9.390;2023-12-20T11:09:29;98606.66;;;5.27;87.87
53719;BME280;39616;48.872;9.390;2023-12-20T11:12:10;98597.63;;;5.39;90.15
53719;BME280;39616;48.872;9.390;2023-12-20T11:14:47;98600.84;;;5.41;90.12
53719;BME280;39616;48.872;9.390;2023-12-20T11:17:19;98590.19;;;5.51;90.18
53719;BME280;39616;48.872;9.390;2023-12-20T11:22:32;98605.78;;;5.49;88.15
53719;BME280;39616;48.872;9.390;2023-12-20T11:27:36;98588.47;;;5.40;88.33
53719;BME280;39616;48.872;9.390;2023-12-20T11:30:08;98592.66;;;5.25;85.99
53719;BME280;39616;48.872;9.390;2023-12-20T11:32:39;98592.16;;;5.28;84.83
53719;BME280;39616;48.872;9.390;2023-12-20T11:37:40;98583.19;;;5.50;85.12
53719;BME280;39616;48.872;9.390;2023-12-20T11:40:18;98586.97;;;5.49;82.33
53719;BME280;39616;48.872;9.390;2023-12-20T11:42:49;98600.09;;;5.45;82.03
53719;BME280;39616;48.872;9.390;2023-12-20T11:45:24;98604.66;;;5.45;82.53
53719;BME280;39616;48.872;9.390;2023-12-20T11:47:56;98608.63;;;5.37;82.89
53719;BME280;39616;48.872;9.390;2023-12-20T11:50:28;98603.16;;;5.27;86.11
53719;BME280;39616;48.872;9.390;2023-12-20T11:52:59;98608.63;;;5.10;85.26
53719;BME280;39616;48.872;9.390;2023-12-20T11:55:30;98611.13;;;5.17;86.91
53719;BME280;39616;48.872;9.390;2023-12-20T11:58:00;98607.03;;;5.09;86.73
53719;BME280;39616;48.872;9.390;2023-12-20T12:00:30;98597.50;;;5.23;89.06
53719;BME280;39616;48.872;9.390;2023-12-20T12:03:00;98595.19;;;5.10;88.33
53719;BME280;39616;48.872;9.390;2023-12-20T12:05:33;98603.75;;;5.07;86.13
53719;BME280;39616;48.872;9.390;2023-12-20T12:08:03;98591.94;;;5.08;87.29
53719;BME280;39616;48.872;9.390;2023-12-20T12:10:34;98586.31;;;5.09;89.66
53719;BME280;39616;48.872;9.390;2023-12-20T12:13:05;98598.34;;;5.02;87.92
53719;BME280;39616;48.872;9.390;2023-12-20T12:15:36;98585.16;;;5.00;88.13
53719;BME280;39616;48.872;9.390;2023-12-20T12:18:07;98575.53;;;5.04;87.82
53719;BME280;39616;48.872;9.390;2023-12-20T12:20:37;98579.72;;;5.22;88.46
53719;BME280;39616;48.872;9.390;2023-12-20T12:23:08;98575.97;;;5.23;87.91
53719;BME280;39616;48.872;9.390;2023-12-20T12:25:38;98568.97;;;5.22;86.08
53719;BME280;39616;48.872;9.390;2023-12-20T12:28:09;98569.25;;;5.26;84.09
53719;BME280;39616;48.872;9.390;2023-12-20T12:30:40;98565.84;;;5.36;85.22
53719;BME280;39616;48.872;9.390;2023-12-20T12:33:11;98557.56;;;5.42;85.13
53719;BME280;39616;48.872;9.390;2023-12-20T12:35:41;98556.81;;;5.47;85.99
53719;BME280;39616;48.872;9.390;2023-12-20T12:38:12;98556.06;;;5.56;86.37
53719;BME280;39616;48.872;9.390;2023-12-20T12:40:43;98556.66;;;5.64;85.82
53719;BME280;39616;48.872;9.390;2023-12-20T12:43:13;98554.38;;;5.82;87.19
53719;BME280;39616;48.872;9.390;2023-12-20T12:45:44;98552.44;;;5.78;84.65
53719;BME280;39616;48.872;9.390;2023-12-20T12:48:14;98554.31;;;5.77;85.67
53719;BME280;39616;48.872;9.390;2023-12-20T12:50:47;98545.44;;;5.77;85.43
53719;BME280;39616;48.872;9.390;2023-12-20T12:53:18;98546.25;;;5.77;84.45
53719;BME280;39616;48.872;9.390;2023-12-20T12:55:48;98557.56;;;5.79;84.79
53719;BME280;39616;48.872;9.390;2023-12-20T12:58:18;98555.28;;;5.56;84.68
53719;BME280;39616;48.872;9.390;2023-12-20T13:00:49;98552.81;;;5.54;84.27
53719;BME280;39616;48.872;9.390;2023-12-20T13:03:19;98555.44;;;5.44;83.23
53719;BME280;39616;48.872;9.390;2023-12-20T13:05:50;98552.78;;;5.49;85.37
53719;BME280;39616;48.872;9.390;2023-12-20T13:08:20;98554.44;;;5.55;84.67
53719;BME280;39616;48.872;9.390;2023-12-20T13:10:50;98554.09;;;5.42;84.97
53719;BME280;39616;48.872;9.390;2023-12-20T13:13:21;98551.91;;;5.39;85.95
53719;BME280;39616;48.872;9.390;2023-12-20T13:15:51;98561.84;;;5.38;87.20
53719;BME280;39616;48.872;9.390;2023-12-20T13:18:24;98554.81;;;5.37;87.24
53719;BME280;39616;48.872;9.390;2023-12-20T13:20:55;98551.13;;;5.43;86.53
53719;BME280;39616;48.872;9.390;2023-12-20T13:23:25;98559.22;;;5.48;86.44
53719;BME280;39616;48.872;9.390;2023-12-20T13:25:56;98557.59;;;5.47;87.02
53719;BME280;39616;48.872;9.390;2023-12-20T13:28:26;98552.22;;;5.47;85.29